createdAt,value
2018-06-11T00:00:59.070Z,0.00
2018-06-11T00:01:59.074Z,0.00
2018-06-11T00:02:59.077Z,0.00
2018-06-11T00:03:59.081Z,0.00
2018-06-11T00:04:59.083Z,0.00
2018-06-11T00:05:59.088Z,0.00
2018-06-11T00:06:59.089Z,0.00
2018-06-11T00:07:59.094Z,0.00
2018-06-11T00:08:59.096Z,0.00
2018-06-11T00:09:59.098Z,0.00
2018-06-11T00:10:59.103Z,0.00
2018-06-11T00:11:59.106Z,0.00
2018-06-11T00:12:59.107Z,0.00
2018-06-11T00:13:59.113Z,0.00
2018-06-11T00:14:59.115Z,0.00
2018-06-11T00:15:59.117Z,0.00
2018-06-11T00:16:59.119Z,0.00
2018-06-11T00:17:59.127Z,0.00
2018-06-11T00:18:59.127Z,0.00
2018-06-11T00:19:59.130Z,0.00
2018-06-11T00:20:59.132Z,0.00
2018-06-11T00:21:59.136Z,0.00
2018-06-11T00:22:59.149Z,0.00
2018-06-11T00:23:59.141Z,0.00
2018-06-11T00:24:59.143Z,0.00
2018-06-11T00:25:59.146Z,0.00
2018-06-11T00:26:59.150Z,0.00
2018-06-11T00:27:59.153Z,0.00
2018-06-11T00:28:59.155Z,0.00
2018-06-11T00:29:59.163Z,0.00
2018-06-11T00:30:59.162Z,0.00
2018-06-11T00:31:59.167Z,0.00
2018-06-11T00:32:59.167Z,0.00
2018-06-11T00:33:59.170Z,0.00
2018-06-11T00:34:59.173Z,0.00
2018-06-11T00:35:59.179Z,0.00
2018-06-11T00:36:59.178Z,0.00
2018-06-11T00:37:59.182Z,0.00
2018-06-11T00:38:59.186Z,0.00
2018-06-11T00:39:59.189Z,0.00
2018-06-11T00:40:59.190Z,0.00
2018-06-11T00:41:59.193Z,0.00
2018-06-11T00:42:59.197Z,0.00
2018-06-11T00:43:59.199Z,0.00
2018-06-11T00:44:59.203Z,0.00
2018-06-11T00:45:59.205Z,0.00
2018-06-11T00:46:59.210Z,0.00
2018-06-11T00:47:59.212Z,0.00
2018-06-11T00:48:59.213Z,0.00
2018-06-11T00:49:59.217Z,0.00
2018-06-11T00:50:59.221Z,0.00
2018-06-11T00:51:59.223Z,0.00
2018-06-11T00:52:59.225Z,0.00
2018-06-11T00:53:59.231Z,0.00
2018-06-11T00:54:59.234Z,0.00
2018-06-11T00:55:59.235Z,0.00
2018-06-11T00:56:59.237Z,0.00
2018-06-11T00:57:59.240Z,0.00
2018-06-11T00:58:59.243Z,0.00
2018-06-11T00:59:59.247Z,0.00
2018-06-11T01:00:59.247Z,0.00
2018-06-11T01:01:59.252Z,0.00
2018-06-11T01:02:59.257Z,0.00
2018-06-11T01:03:59.258Z,0.00
2018-06-11T01:04:59.260Z,0.00
2018-06-11T01:05:59.263Z,0.00
2018-06-11T01:06:59.265Z,0.00
2018-06-11T01:07:59.269Z,0.00
2018-06-11T01:08:59.271Z,0.00
2018-06-11T01:09:59.275Z,0.00
2018-06-11T01:10:59.281Z,0.00
2018-06-11T01:11:59.279Z,0.00
2018-06-11T01:12:59.280Z,0.00
2018-06-11T01:13:59.286Z,0.00
2018-06-11T01:14:59.289Z,0.00
2018-06-11T01:15:59.290Z,0.00
2018-06-11T01:16:59.293Z,0.00
2018-06-11T01:17:59.295Z,0.00
2018-06-11T01:18:59.302Z,0.00
2018-06-11T01:19:59.301Z,0.00
2018-06-11T01:20:59.304Z,0.00
2018-06-11T01:21:59.306Z,0.00
2018-06-11T01:22:59.311Z,0.00
2018-06-11T01:23:59.312Z,0.00
2018-06-11T01:24:59.315Z,0.00
2018-06-11T01:25:59.317Z,0.00
2018-06-11T01:26:59.321Z,0.00
2018-06-11T01:27:59.324Z,0.00
2018-06-11T01:28:59.325Z,0.00
2018-06-11T01:29:59.328Z,0.00
2018-06-11T01:30:59.331Z,0.00
2018-06-11T01:31:59.335Z,0.00
2018-06-11T01:32:59.336Z,0.00
2018-06-11T01:33:59.340Z,0.00
2018-06-11T01:34:59.342Z,0.00
2018-06-11T01:35:59.346Z,0.00
2018-06-11T01:36:59.346Z,0.00
2018-06-11T01:37:59.350Z,0.00
2018-06-11T01:38:59.356Z,0.00
2018-06-11T01:39:59.356Z,0.00
2018-06-11T01:40:59.357Z,0.00
2018-06-11T01:41:59.362Z,0.00
2018-06-11T01:42:59.363Z,0.00
2018-06-11T01:43:59.367Z,0.00
2018-06-11T01:44:59.373Z,0.00
2018-06-11T01:45:59.372Z,0.00
2018-06-11T01:46:59.374Z,0.00
2018-06-11T01:47:59.377Z,0.00
2018-06-11T01:48:59.378Z,0.00
2018-06-11T01:49:59.386Z,0.00
2018-06-11T01:50:59.386Z,0.00
2018-06-11T01:51:59.389Z,0.00
2018-06-11T01:52:59.389Z,0.00
2018-06-11T01:53:59.392Z,0.00
2018-06-11T01:54:59.395Z,0.00
2018-06-11T01:55:59.399Z,0.00
2018-06-11T01:56:59.400Z,0.00
2018-06-11T01:57:59.403Z,0.00
2018-06-11T01:58:59.407Z,0.00
2018-06-11T01:59:59.412Z,0.00
2018-06-11T02:00:59.411Z,0.00
2018-06-11T02:01:59.416Z,0.00
2018-06-11T02:02:59.418Z,0.00
2018-06-11T02:03:59.419Z,0.00
2018-06-11T02:04:59.422Z,0.00
2018-06-11T02:05:59.423Z,0.00
2018-06-11T02:06:59.428Z,0.00
2018-06-11T02:07:59.430Z,0.00
2018-06-11T02:08:59.432Z,0.00
2018-06-11T02:09:59.435Z,0.00
2018-06-11T02:10:59.438Z,0.00
2018-06-11T02:11:59.441Z,0.00
2018-06-11T02:12:59.443Z,0.00
2018-06-11T02:13:59.445Z,0.00
2018-06-11T02:14:59.448Z,0.00
2018-06-11T02:15:59.450Z,0.00
2018-06-11T02:16:59.452Z,0.00
2018-06-11T02:17:59.455Z,0.00
2018-06-11T02:18:59.461Z,0.00
2018-06-11T02:19:59.463Z,0.00
2018-06-11T02:20:59.464Z,0.00
2018-06-11T02:21:59.471Z,0.00
2018-06-11T02:22:59.469Z,0.00
2018-06-11T02:23:59.472Z,0.00
2018-06-11T02:24:59.474Z,0.00
2018-06-11T02:25:59.476Z,0.00
2018-06-11T02:26:59.480Z,0.00
2018-06-11T02:27:59.482Z,0.00
2018-06-11T02:28:59.483Z,0.00
2018-06-11T02:29:59.486Z,0.00
2018-06-11T02:30:59.491Z,0.00
2018-06-11T02:31:59.491Z,0.00
2018-06-11T02:32:59.495Z,0.00
2018-06-11T02:33:59.496Z,0.00
2018-06-11T02:34:59.498Z,0.00
2018-06-11T02:35:59.502Z,0.00
2018-06-11T02:36:59.503Z,0.00
2018-06-11T02:37:59.507Z,0.00
2018-06-11T02:38:59.559Z,0.00
2018-06-11T02:39:59.512Z,0.00
2018-06-11T02:40:59.514Z,0.00
2018-06-11T02:41:59.517Z,0.00
2018-06-11T02:42:59.518Z,0.00
2018-06-11T02:43:59.522Z,0.00
2018-06-11T02:44:59.523Z,0.00
2018-06-11T02:45:59.526Z,0.00
2018-06-11T02:46:59.528Z,0.00
2018-06-11T02:47:59.531Z,0.00
2018-06-11T02:48:59.533Z,0.00
2018-06-11T02:49:59.536Z,0.00
2018-06-11T02:50:59.539Z,0.00
2018-06-11T02:51:59.541Z,0.00
2018-06-11T02:52:59.543Z,0.00
2018-06-11T02:53:59.544Z,0.00
2018-06-11T02:54:59.547Z,0.00
2018-06-11T02:55:59.551Z,0.00
2018-06-11T02:56:59.552Z,0.00
2018-06-11T02:57:59.554Z,0.00
2018-06-11T02:58:59.556Z,0.00
2018-06-11T02:59:59.560Z,0.00
2018-06-11T03:00:59.561Z,0.00
2018-06-11T03:01:59.564Z,0.00
2018-06-11T03:02:59.567Z,0.00
2018-06-11T03:03:59.570Z,0.00
2018-06-11T03:04:59.570Z,0.00
2018-06-11T03:05:59.574Z,0.00
2018-06-11T03:06:59.575Z,0.00
2018-06-11T03:07:59.581Z,0.00
2018-06-11T03:08:59.579Z,0.00
2018-06-11T03:09:59.582Z,0.00
2018-06-11T03:10:59.587Z,0.00
2018-06-11T03:11:59.589Z,0.00
2018-06-11T03:12:59.590Z,0.00
2018-06-11T03:13:59.593Z,0.00
2018-06-11T03:14:59.595Z,0.00
2018-06-11T03:15:59.599Z,0.00
2018-06-11T03:16:59.599Z,0.00
2018-06-11T03:17:59.603Z,0.00
2018-06-11T03:18:59.614Z,0.00
2018-06-11T03:19:59.609Z,0.00
2018-06-11T03:20:59.608Z,0.00
2018-06-11T03:21:59.612Z,0.00
2018-06-11T03:22:59.615Z,0.00
2018-06-11T03:23:59.617Z,0.00
2018-06-11T03:24:59.619Z,0.00
2018-06-11T03:25:59.622Z,0.00
2018-06-11T03:26:59.625Z,5.63
2018-06-11T03:27:59.628Z,5.63
2018-06-11T03:28:59.631Z,5.63
2018-06-11T03:29:59.630Z,5.63
2018-06-11T03:30:59.633Z,5.63
2018-06-11T03:31:59.636Z,5.63
2018-06-11T03:32:59.638Z,5.63
2018-06-11T03:33:59.641Z,5.63
2018-06-11T03:34:59.644Z,5.63
2018-06-11T03:35:59.646Z,5.63
2018-06-11T03:36:59.648Z,5.63
2018-06-11T03:37:59.653Z,5.63
2018-06-11T03:38:59.653Z,5.63
2018-06-11T03:39:59.655Z,11.25
2018-06-11T03:40:59.657Z,11.25
2018-06-11T03:41:59.661Z,11.25
2018-06-11T03:42:59.661Z,11.25
2018-06-11T03:43:59.664Z,11.25
2018-06-11T03:44:59.668Z,11.25
2018-06-11T03:45:59.669Z,11.25
2018-06-11T03:46:59.672Z,11.25
2018-06-11T03:47:59.674Z,11.25
2018-06-11T03:48:59.675Z,11.25
2018-06-11T03:49:59.679Z,11.25
2018-06-11T03:50:59.681Z,11.25
2018-06-11T03:51:59.684Z,11.25
2018-06-11T03:52:59.686Z,16.88
2018-06-11T03:53:59.689Z,16.88
2018-06-11T03:54:59.692Z,16.88
2018-06-11T03:55:59.693Z,16.88
2018-06-11T03:56:59.695Z,16.88
2018-06-11T03:57:59.697Z,16.88
2018-06-11T03:58:59.700Z,16.88
2018-06-11T03:59:59.703Z,16.88
2018-06-11T04:00:59.706Z,16.88
2018-06-11T04:01:59.707Z,16.88
2018-06-11T04:02:59.711Z,16.88
2018-06-11T04:03:59.712Z,16.88
2018-06-11T04:04:59.714Z,22.50
2018-06-11T04:05:59.717Z,22.50
2018-06-11T04:06:59.724Z,22.50
2018-06-11T04:07:59.722Z,22.50
2018-06-11T04:08:59.723Z,22.50
2018-06-11T04:09:59.726Z,22.50
2018-06-11T04:10:59.778Z,22.50
2018-06-11T04:11:59.733Z,22.50
2018-06-11T04:12:59.735Z,22.50
2018-06-11T04:13:59.736Z,22.50
2018-06-11T04:14:59.738Z,28.13
2018-06-11T04:15:59.741Z,28.13
2018-06-11T04:16:59.745Z,28.13
2018-06-11T04:17:59.747Z,28.13
2018-06-11T04:18:59.753Z,28.13
2018-06-11T04:19:59.753Z,28.13
2018-06-11T04:20:59.754Z,28.13
2018-06-11T04:21:59.759Z,28.13
2018-06-11T04:22:59.760Z,28.13
2018-06-11T04:23:59.762Z,28.13
2018-06-11T04:24:59.764Z,33.75
2018-06-11T04:25:59.767Z,33.75
2018-06-11T04:26:59.770Z,33.75
2018-06-11T04:27:59.773Z,33.75
2018-06-11T04:28:59.774Z,33.75
2018-06-11T04:29:59.778Z,33.75
2018-06-11T04:30:59.781Z,33.75
2018-06-11T04:31:59.783Z,33.75
2018-06-11T04:32:59.785Z,33.75
2018-06-11T04:33:59.788Z,33.75
2018-06-11T04:34:59.790Z,33.75
2018-06-11T04:35:59.793Z,33.75
2018-06-11T04:36:59.794Z,33.75
2018-06-11T04:37:59.799Z,33.75
2018-06-11T04:38:59.801Z,39.38
2018-06-11T04:39:59.803Z,39.38
2018-06-11T04:40:59.805Z,39.38
2018-06-11T04:41:59.809Z,39.38
2018-06-11T04:42:59.812Z,39.38
2018-06-11T04:43:59.814Z,39.38
2018-06-11T04:44:59.816Z,39.38
2018-06-11T04:45:59.822Z,39.38
2018-06-11T04:46:59.822Z,39.38
2018-06-11T04:47:59.826Z,45.00
2018-06-11T04:48:59.827Z,45.00
2018-06-11T04:49:59.830Z,45.00
2018-06-11T04:50:59.835Z,45.00
2018-06-11T04:51:59.836Z,45.00
2018-06-11T04:52:59.839Z,45.00
2018-06-11T04:53:59.840Z,45.00
2018-06-11T04:54:59.844Z,45.00
2018-06-11T04:55:59.848Z,45.00
2018-06-11T04:56:59.849Z,45.00
2018-06-11T04:57:59.853Z,45.00
2018-06-11T04:58:59.856Z,45.00
2018-06-11T04:59:59.858Z,50.63
2018-06-11T05:00:59.859Z,50.63
2018-06-11T05:01:59.866Z,50.63
2018-06-11T05:02:59.867Z,50.63
2018-06-11T05:03:59.869Z,50.63
2018-06-11T05:04:59.871Z,50.63
2018-06-11T05:05:59.875Z,56.25
2018-06-11T05:06:59.877Z,56.25
2018-06-11T05:07:59.926Z,56.25
2018-06-11T05:08:59.884Z,56.25
2018-06-11T05:09:59.904Z,56.25
2018-06-11T05:10:59.891Z,56.25
2018-06-11T05:11:59.894Z,56.25
2018-06-11T05:12:59.895Z,61.88
2018-06-11T05:13:59.898Z,61.88
2018-06-11T05:14:59.900Z,61.88
2018-06-11T05:15:59.904Z,61.88
2018-06-11T05:16:59.906Z,61.88
2018-06-11T05:17:59.909Z,61.88
2018-06-11T05:18:59.914Z,61.88
2018-06-11T05:19:59.916Z,61.88
2018-06-11T05:20:59.919Z,61.88
2018-06-11T05:21:59.922Z,61.88
2018-06-11T05:22:59.924Z,61.88
2018-06-11T05:23:59.928Z,61.88
2018-06-11T05:24:59.933Z,67.50
2018-06-11T05:25:59.940Z,67.50
2018-06-11T05:26:59.938Z,67.50
2018-06-11T05:27:59.948Z,67.50
2018-06-11T05:28:59.944Z,67.50
2018-06-11T05:29:59.946Z,67.50
2018-06-11T05:30:59.951Z,73.13
2018-06-11T05:31:59.953Z,73.13
2018-06-11T05:32:59.956Z,73.13
2018-06-11T05:33:59.961Z,73.13
2018-06-11T05:34:59.965Z,73.13
2018-06-11T05:35:59.967Z,78.75
2018-06-11T05:39:00.417Z,78.75
2018-06-11T05:40:00.425Z,78.75
2018-06-11T05:41:00.424Z,84.38
2018-06-11T05:42:00.485Z,84.38
2018-06-11T05:43:00.458Z,84.38
2018-06-11T05:44:00.507Z,84.38
2018-06-11T05:45:00.437Z,84.38
2018-06-11T05:46:00.440Z,84.38
2018-06-11T05:47:00.534Z,84.38
2018-06-11T05:48:00.527Z,84.38
2018-06-11T05:49:00.517Z,84.38
2018-06-11T05:50:00.543Z,84.38
2018-06-11T05:51:00.509Z,84.38
2018-06-11T05:52:00.480Z,84.38
2018-06-11T05:53:00.516Z,90.00
2018-06-11T05:54:00.504Z,90.00
2018-06-11T05:55:00.665Z,90.00
2018-06-11T05:56:00.476Z,90.00
2018-06-11T05:57:00.480Z,95.63
2018-06-11T05:58:00.483Z,95.63
2018-06-11T05:59:00.487Z,95.63
2018-06-11T06:00:00.490Z,95.63
2018-06-11T06:01:00.494Z,90.00
2018-06-11T06:02:00.497Z,95.63
2018-06-11T06:03:00.502Z,95.63
2018-06-11T06:04:00.564Z,101.25
2018-06-11T06:05:00.515Z,101.25
2018-06-11T06:06:00.514Z,106.88
2018-06-11T06:07:00.517Z,106.88
2018-06-11T06:08:00.556Z,106.88
2018-06-11T06:09:00.544Z,106.88
2018-06-11T06:10:00.544Z,106.88
2018-06-11T06:11:00.534Z,112.50
2018-06-11T06:12:00.537Z,112.50
2018-06-11T06:13:00.541Z,112.50
2018-06-11T06:14:00.550Z,112.50
2018-06-11T06:15:00.550Z,112.50
2018-06-11T06:16:00.553Z,118.13
2018-06-11T06:17:00.689Z,118.13
2018-06-11T06:18:00.700Z,112.50
2018-06-11T06:19:00.604Z,118.13
2018-06-11T06:20:00.667Z,129.38
2018-06-11T06:21:00.656Z,129.38
2018-06-11T06:22:00.624Z,140.63
2018-06-11T06:23:00.582Z,135.00
2018-06-11T06:24:00.588Z,135.00
2018-06-11T06:25:00.590Z,140.63
2018-06-11T06:26:00.594Z,129.38
2018-06-11T06:27:00.599Z,135.00
2018-06-11T06:28:00.604Z,123.75
2018-06-11T06:29:00.866Z,118.13
2018-06-11T06:30:00.637Z,106.88
2018-06-11T06:31:00.619Z,135.00
2018-06-11T06:32:00.627Z,135.00
2018-06-11T06:33:00.626Z,129.38
2018-06-11T06:34:00.632Z,129.38
2018-06-11T06:35:00.639Z,140.63
2018-06-11T06:36:00.641Z,146.25
2018-06-11T06:37:00.646Z,146.25
2018-06-11T06:38:00.649Z,151.88
2018-06-11T06:39:00.654Z,151.88
2018-06-11T06:40:00.657Z,157.50
2018-06-11T06:41:00.668Z,129.38
2018-06-11T06:42:00.669Z,129.38
2018-06-11T06:43:00.828Z,140.63
2018-06-11T06:44:00.771Z,129.38
2018-06-11T06:45:00.682Z,146.25
2018-06-11T06:46:00.747Z,151.88
2018-06-11T06:47:00.763Z,151.88
2018-06-11T06:48:00.723Z,157.50
2018-06-11T06:49:00.727Z,157.50
2018-06-11T06:50:00.722Z,163.13
2018-06-11T06:51:00.852Z,163.13
2018-06-11T06:52:00.715Z,163.13
2018-06-11T06:53:00.720Z,163.13
2018-06-11T06:54:00.725Z,163.13
2018-06-11T06:55:00.731Z,146.25
2018-06-11T06:56:00.737Z,146.25
2018-06-11T06:57:00.740Z,163.13
2018-06-11T06:58:00.746Z,163.13
2018-06-11T06:59:00.751Z,163.13
2018-06-11T07:00:00.851Z,168.75
2018-06-11T07:01:00.764Z,168.75
2018-06-11T07:02:01.037Z,168.75
2018-06-11T07:03:00.770Z,168.75
2018-06-11T07:04:00.775Z,174.38
2018-06-11T07:05:00.782Z,174.38
2018-06-11T07:06:00.787Z,174.38
2018-06-11T07:07:00.856Z,180.00
2018-06-11T07:08:00.821Z,174.38
2018-06-11T07:09:00.804Z,180.00
2018-06-11T07:10:00.811Z,180.00
2018-06-11T07:11:00.833Z,180.00
2018-06-11T07:12:00.820Z,180.00
2018-06-11T07:13:00.826Z,185.63
2018-06-11T07:14:00.835Z,191.25
2018-06-11T07:15:00.836Z,191.25
2018-06-11T07:16:00.841Z,191.25
2018-06-11T07:17:00.884Z,196.88
2018-06-11T07:18:00.863Z,196.88
2018-06-11T07:19:00.873Z,202.50
2018-06-11T07:20:00.898Z,202.50
2018-06-11T07:21:00.911Z,202.50
2018-06-11T07:22:00.884Z,202.50
2018-06-11T07:23:00.885Z,213.75
2018-06-11T07:24:00.984Z,208.13
2018-06-11T07:25:00.893Z,208.13
2018-06-11T07:26:00.898Z,219.38
2018-06-11T07:27:00.922Z,225.00
2018-06-11T07:28:00.910Z,635.63
2018-06-11T07:29:00.916Z,1473.75
2018-06-11T07:30:00.921Z,2199.38
2018-06-11T07:31:00.928Z,2278.13
2018-06-11T07:32:00.935Z,2013.75
2018-06-11T07:33:00.943Z,2210.63
2018-06-11T07:34:00.949Z,2210.63
2018-06-11T07:35:01.011Z,2340.00
2018-06-11T07:36:01.044Z,2115.00
2018-06-11T07:37:00.975Z,2238.75
2018-06-11T07:38:00.985Z,1620.00
2018-06-11T07:39:00.993Z,945.00
2018-06-11T07:40:01.004Z,1153.13
2018-06-11T07:41:01.051Z,1361.25
2018-06-11T07:42:01.024Z,990.00
2018-06-11T07:43:01.034Z,883.13
2018-06-11T07:44:01.050Z,1845.00
2018-06-11T07:45:01.055Z,1541.25
2018-06-11T07:46:01.066Z,950.63
2018-06-11T07:47:01.078Z,1068.75
2018-06-11T07:48:01.194Z,635.63
2018-06-11T07:49:01.134Z,652.50
2018-06-11T07:50:01.169Z,1074.38
2018-06-11T07:51:01.237Z,1254.38
2018-06-11T07:52:01.235Z,1743.75
2018-06-11T07:53:01.147Z,1462.50
2018-06-11T07:54:01.158Z,1530.00
2018-06-11T07:55:01.169Z,1231.88
2018-06-11T07:56:01.182Z,753.75
2018-06-11T07:57:01.193Z,1141.88
2018-06-11T07:58:01.205Z,978.75
2018-06-11T07:59:01.241Z,663.75
2018-06-11T08:00:01.281Z,2143.13
2018-06-11T08:01:01.242Z,2250.00
2018-06-11T08:02:01.255Z,2109.38
2018-06-11T08:03:01.273Z,1665.00
2018-06-11T08:04:01.280Z,2148.75
2018-06-11T08:05:01.309Z,2154.38
2018-06-11T08:06:01.307Z,2075.63
2018-06-11T08:07:01.320Z,1946.25
2018-06-11T08:08:01.333Z,1963.13
2018-06-11T08:09:01.348Z,1957.50
2018-06-11T08:10:01.362Z,1884.38
2018-06-11T08:11:01.558Z,2008.13
2018-06-11T08:12:01.390Z,2205.00
2018-06-11T08:13:01.405Z,2131.88
2018-06-11T08:14:01.419Z,2176.88
2018-06-11T08:15:01.435Z,2036.25
2018-06-11T08:16:01.448Z,2126.25
2018-06-11T08:17:01.463Z,2278.13
2018-06-11T08:18:01.525Z,2098.13
2018-06-11T08:19:01.549Z,1996.88
2018-06-11T08:20:01.612Z,1991.25
2018-06-11T08:21:01.610Z,2030.63
2018-06-11T08:22:01.665Z,2390.63
2018-06-11T08:23:01.565Z,2694.38
2018-06-11T08:24:01.570Z,2036.25
2018-06-11T08:25:01.585Z,1923.75
2018-06-11T08:26:01.600Z,2143.13
2018-06-11T08:27:01.710Z,2143.13
2018-06-11T08:28:01.636Z,2019.38
2018-06-11T08:29:01.646Z,2075.63
2018-06-11T08:30:01.666Z,1985.63
2018-06-11T08:31:01.691Z,1884.38
2018-06-11T08:32:01.693Z,1901.25
2018-06-11T08:33:01.710Z,1957.50
2018-06-11T08:34:01.727Z,2103.75
2018-06-11T08:35:01.742Z,2025.00
2018-06-11T08:36:02.278Z,1929.38
2018-06-11T08:37:01.775Z,1923.75
2018-06-11T08:38:01.799Z,1951.88
2018-06-11T08:39:01.807Z,1980.00
2018-06-11T08:40:01.823Z,1968.75
2018-06-11T08:41:01.838Z,2025.00
2018-06-11T08:42:01.856Z,2019.38
2018-06-11T08:43:01.870Z,1890.00
2018-06-11T08:44:01.894Z,1890.00
2018-06-11T08:45:01.905Z,1845.00
2018-06-11T08:46:01.922Z,1760.63
2018-06-11T08:47:01.937Z,1878.75
2018-06-11T08:48:02.013Z,1873.13
2018-06-11T08:49:02.017Z,1726.88
2018-06-11T08:50:02.105Z,1800.00
2018-06-11T08:51:02.002Z,1873.13
2018-06-11T08:52:02.021Z,1861.88
2018-06-11T08:53:02.037Z,1878.75
2018-06-11T08:54:02.054Z,1867.50
2018-06-11T08:55:02.071Z,1755.00
2018-06-11T08:56:02.088Z,1636.88
2018-06-11T08:57:02.103Z,1704.38
2018-06-11T08:58:02.313Z,1822.50
2018-06-11T08:59:02.134Z,1856.25
2018-06-11T09:00:02.559Z,1766.25
2018-06-11T09:01:02.169Z,1771.88
2018-06-11T09:02:02.184Z,1766.25
2018-06-11T09:03:02.201Z,1642.50
2018-06-11T09:04:02.215Z,1575.00
2018-06-11T09:05:02.234Z,1490.63
2018-06-11T09:06:02.525Z,1496.25
2018-06-11T09:07:02.265Z,1518.75
2018-06-11T09:08:02.284Z,1406.25
2018-06-11T09:09:02.297Z,1530.00
2018-06-11T09:10:02.312Z,1563.75
2018-06-11T09:11:02.328Z,1535.63
2018-06-11T09:12:02.345Z,1580.63
2018-06-11T09:13:02.361Z,1580.63
2018-06-11T09:14:02.377Z,1586.25
2018-06-11T09:15:02.394Z,1518.75
2018-06-11T09:16:02.408Z,1552.50
2018-06-11T09:17:02.426Z,1490.63
2018-06-11T09:18:02.493Z,1608.75
2018-06-11T09:19:02.457Z,1580.63
2018-06-11T09:20:02.474Z,1558.13
2018-06-11T09:21:02.491Z,1620.00
2018-06-11T09:22:02.509Z,1575.00
2018-06-11T09:23:02.528Z,1479.38
2018-06-11T09:24:02.542Z,1507.50
2018-06-11T09:25:02.663Z,1434.38
2018-06-11T09:26:02.576Z,1344.38
2018-06-11T09:27:02.591Z,1220.63
2018-06-11T09:28:02.608Z,1209.38
2018-06-11T09:29:02.624Z,1170.00
2018-06-11T09:30:02.906Z,1231.88
2018-06-11T09:31:02.907Z,1136.25
2018-06-11T09:32:02.936Z,1068.75
2018-06-11T09:33:02.972Z,1338.75
2018-06-11T09:34:02.708Z,1305.00
2018-06-11T09:35:02.724Z,1288.13
2018-06-11T09:36:02.741Z,1276.88
2018-06-11T09:37:02.757Z,1215.00
2018-06-11T09:38:02.773Z,1186.88
2018-06-11T09:39:02.792Z,1091.25
2018-06-11T09:40:02.804Z,1001.25
2018-06-11T09:41:02.820Z,995.63
2018-06-11T09:42:02.837Z,1006.88
2018-06-11T09:43:02.852Z,838.13
2018-06-11T09:44:02.889Z,956.25
2018-06-11T09:45:02.886Z,1113.75
2018-06-11T09:46:02.901Z,1040.63
2018-06-11T09:47:02.915Z,956.25
2018-06-11T09:48:02.931Z,1096.88
2018-06-11T09:49:02.949Z,1141.88
2018-06-11T09:50:02.963Z,1153.13
2018-06-11T09:51:02.979Z,1141.88
2018-06-11T09:52:02.994Z,1108.13
2018-06-11T09:53:03.011Z,984.38
2018-06-11T09:54:03.025Z,1125.00
2018-06-11T09:55:03.051Z,1141.88
2018-06-11T09:56:03.057Z,1136.25
2018-06-11T09:57:03.075Z,1057.50
2018-06-11T09:58:03.087Z,1141.88
2018-06-11T09:59:03.103Z,1243.13
2018-06-11T10:00:03.118Z,1490.63
2018-06-11T10:01:03.230Z,1518.75
2018-06-11T10:02:03.214Z,894.38
2018-06-11T10:03:03.192Z,534.38
2018-06-11T10:04:03.261Z,461.25
2018-06-11T10:05:03.262Z,450.00
2018-06-11T10:06:03.213Z,495.00
2018-06-11T10:07:03.226Z,478.13
2018-06-11T10:08:03.244Z,461.25
2018-06-11T10:09:03.320Z,472.50
2018-06-11T10:10:03.274Z,461.25
2018-06-11T10:11:03.288Z,455.63
2018-06-11T10:12:03.304Z,450.00
2018-06-11T10:13:03.320Z,438.75
2018-06-11T10:14:03.336Z,427.50
2018-06-11T10:15:03.631Z,399.38
2018-06-11T10:16:03.364Z,371.25
2018-06-11T10:17:03.380Z,337.50
2018-06-11T10:18:03.396Z,315.00
2018-06-11T10:19:03.444Z,365.63
2018-06-11T10:20:03.539Z,382.50
2018-06-11T10:21:03.442Z,388.13
2018-06-11T10:22:03.454Z,371.25
2018-06-11T10:23:03.470Z,360.00
2018-06-11T10:24:03.602Z,360.00
2018-06-11T10:25:03.495Z,360.00
2018-06-11T10:26:03.512Z,371.25
2018-06-11T10:27:03.728Z,382.50
2018-06-11T10:28:03.538Z,382.50
2018-06-11T10:29:03.553Z,388.13
2018-06-11T10:30:03.567Z,399.38
2018-06-11T10:31:03.580Z,399.38
2018-06-11T10:32:03.595Z,399.38
2018-06-11T10:33:03.611Z,393.75
2018-06-11T10:34:03.624Z,393.75
2018-06-11T10:35:03.785Z,376.88
2018-06-11T10:36:03.653Z,365.63
2018-06-11T10:37:03.669Z,365.63
2018-06-11T10:38:03.685Z,376.88
2018-06-11T10:39:03.919Z,371.25
2018-06-11T10:40:03.715Z,376.88
2018-06-11T10:41:03.727Z,382.50
2018-06-11T10:42:03.743Z,343.13
2018-06-11T10:43:03.775Z,360.00
2018-06-11T10:44:03.774Z,371.25
2018-06-11T10:45:03.799Z,365.63
2018-06-11T10:46:03.802Z,360.00
2018-06-11T10:47:03.820Z,348.75
2018-06-11T10:48:03.833Z,337.50
2018-06-11T10:49:03.848Z,326.25
2018-06-11T10:50:03.873Z,331.88
2018-06-11T10:51:03.877Z,343.13
2018-06-11T10:52:03.894Z,348.75
2018-06-11T10:53:03.909Z,343.13
2018-06-11T10:54:03.925Z,343.13
2018-06-11T10:55:03.937Z,337.50
2018-06-11T10:56:03.953Z,343.13
2018-06-11T10:57:03.969Z,337.50
2018-06-11T10:58:04.053Z,343.13
2018-06-11T10:59:04.060Z,343.13
2018-06-11T11:00:04.136Z,343.13
2018-06-11T11:01:04.028Z,337.50
2018-06-11T11:02:04.040Z,337.50
2018-06-11T11:03:04.053Z,348.75
2018-06-11T11:04:04.067Z,360.00
2018-06-11T11:05:04.082Z,371.25
2018-06-11T11:06:04.097Z,388.13
2018-06-11T11:07:04.109Z,416.25
2018-06-11T11:08:04.227Z,433.13
2018-06-11T11:09:04.138Z,427.50
2018-06-11T11:10:04.157Z,410.63
2018-06-11T11:11:04.167Z,405.00
2018-06-11T11:12:04.182Z,393.75
2018-06-11T11:13:04.213Z,382.50
2018-06-11T11:14:04.210Z,376.88
2018-06-11T11:15:04.335Z,382.50
2018-06-11T11:16:04.237Z,371.25
2018-06-11T11:17:04.255Z,365.63
2018-06-11T11:18:04.267Z,365.63
2018-06-11T11:19:04.278Z,365.63
2018-06-11T11:20:04.293Z,348.75
2018-06-11T11:21:04.435Z,343.13
2018-06-11T11:22:04.321Z,326.25
2018-06-11T11:23:04.334Z,326.25
2018-06-11T11:24:04.445Z,326.25
2018-06-11T11:25:04.362Z,326.25
2018-06-11T11:26:04.440Z,309.38
2018-06-11T11:27:04.390Z,315.00
2018-06-11T11:28:04.404Z,320.63
2018-06-11T11:29:04.417Z,331.88
2018-06-11T11:30:04.431Z,315.00
2018-06-11T11:31:04.443Z,320.63
2018-06-11T11:32:04.456Z,331.88
2018-06-11T11:33:04.476Z,309.38
2018-06-11T11:34:04.482Z,315.00
2018-06-11T11:35:04.496Z,309.38
2018-06-11T11:36:04.508Z,320.63
2018-06-11T11:37:04.522Z,326.25
2018-06-11T11:38:04.736Z,326.25
2018-06-11T11:39:04.673Z,331.88
2018-06-11T11:40:05.082Z,343.13
2018-06-11T11:41:04.574Z,354.38
2018-06-11T11:42:04.586Z,343.13
2018-06-11T11:43:04.598Z,343.13
2018-06-11T11:44:04.611Z,331.88
2018-06-11T11:45:05.268Z,331.88
2018-06-11T11:46:04.638Z,331.88
2018-06-11T11:47:04.649Z,303.75
2018-06-11T11:48:04.922Z,286.88
2018-06-11T11:49:04.796Z,281.25
2018-06-11T11:50:04.687Z,258.75
2018-06-11T11:51:04.725Z,270.00
2018-06-11T11:52:04.712Z,247.50
2018-06-11T11:53:04.723Z,241.88
2018-06-11T11:54:04.737Z,230.63
2018-06-11T11:55:04.749Z,225.00
2018-06-11T11:56:04.764Z,219.38
2018-06-11T11:57:04.774Z,208.13
2018-06-11T11:58:04.785Z,208.13
2018-06-11T11:59:04.796Z,202.50
2018-06-11T12:00:04.816Z,202.50
2018-06-11T12:01:04.844Z,196.88
2018-06-11T12:02:04.833Z,196.88
2018-06-11T12:03:04.843Z,191.25
2018-06-11T12:04:04.855Z,191.25
2018-06-11T12:05:04.868Z,185.63
2018-06-11T12:06:05.179Z,180.00
2018-06-11T12:07:04.889Z,180.00
2018-06-11T12:08:04.902Z,174.38
2018-06-11T12:09:04.912Z,168.75
2018-06-11T12:10:04.925Z,163.13
2018-06-11T12:11:04.935Z,157.50
2018-06-11T12:12:05.060Z,151.88
2018-06-11T12:13:05.105Z,146.25
2018-06-11T12:14:04.971Z,146.25
2018-06-11T12:15:04.979Z,140.63
2018-06-11T12:16:04.988Z,135.00
2018-06-11T12:17:05.124Z,129.38
2018-06-11T12:18:05.264Z,123.75
2018-06-11T12:19:05.134Z,118.13
2018-06-11T12:20:05.031Z,112.50
2018-06-11T12:21:05.041Z,106.88
2018-06-11T12:22:05.052Z,101.25
2018-06-11T12:23:05.063Z,90.00
2018-06-11T12:24:05.074Z,84.38
2018-06-11T12:25:05.090Z,78.75
2018-06-11T12:26:05.534Z,73.13
2018-06-11T12:27:05.102Z,61.88
2018-06-11T12:28:05.119Z,56.25
2018-06-11T12:29:05.123Z,50.63
2018-06-11T12:30:05.135Z,45.00
2018-06-11T12:31:05.219Z,39.38
2018-06-11T12:32:05.153Z,33.75
2018-06-11T12:33:05.164Z,33.75
2018-06-11T12:34:05.314Z,28.13
2018-06-11T12:35:05.239Z,22.50
2018-06-11T12:36:05.237Z,22.50
2018-06-11T12:37:05.199Z,16.88
2018-06-11T12:38:05.210Z,16.88
2018-06-11T12:39:05.217Z,16.88
2018-06-11T12:40:05.337Z,11.25
2018-06-11T12:41:05.285Z,11.25
2018-06-11T12:42:05.246Z,11.25
2018-06-11T12:43:05.256Z,11.25
2018-06-11T12:44:05.265Z,11.25
2018-06-11T12:45:05.326Z,11.25
2018-06-11T12:46:05.289Z,11.25